sensor_id;sensor_type;location;lat;lon;timestamp;pressure;altitude;pressure_sealevel;temperature;humidity
54172;BME280;40076;52.354;4.970;2023-04-21T00:00:50;101693.88;;;10.31;100.00
54172;BME280;40076;52.354;4.970;2023-04-21T00:03:16;101702.59;;;10.28;100.00
54172;BME280;40076;52.354;4.970;2023-04-21T00:05:41;101695.78;;;10.31;100.00
54172;BME280;40076;52.354;4.970;2023-04-21T00:08:07;101700.38;;;10.30;100.00
54172;BME280;40076;52.354;4.970;2023-04-21T00:10:33;101697.50;;;10.27;100.00
54172;BME280;40076;52.354;4.970;2023-04-21T00:12:59;101686.69;;;10.27;100.00
54172;BME280;40076;52.354;4.970;2023-04-21T00:15:24;101682.38;;;10.26;100.00
54172;BME280;40076;52.354;4.970;2023-04-21T00:17:49;101670.78;;;10.25;100.00
54172;BME280;40076;52.354;4.970;2023-04-21T00:20:15;101663.84;;;10.19;100.00
54172;BME280;40076;52.354;4.970;2023-04-21T00:22:40;101665.75;;;10.19;100.00
54172;BME280;40076;52.354;4.970;2023-04-21T00:25:06;101670.56;;;10.22;100.00
54172;BME280;40076;52.354;4.970;2023-04-21T00:27:31;101667.88;;;10.22;100.00
54172;BME280;40076;52.354;4.970;2023-04-21T00:29:56;101671.16;;;10.19;100.00
54172;BME280;40076;52.354;4.970;2023-04-21T00:32:22;101671.69;;;10.16;100.00
54172;BME280;40076;52.354;4.970;2023-04-21T00:34:47;101661.69;;;10.16;100.00
54172;BME280;40076;52.354;4.970;2023-04-21T00:37:12;101648.19;;;10.16;100.00
54172;BME280;40076;52.354;4.970;2023-04-21T00:39:37;101645.31;;;10.13;100.00
54172;BME280;40076;52.354;4.970;2023-04-21T00:42:03;101637.78;;;10.10;100.00
54172;BME280;40076;52.354;4.970;2023-04-21T00:44:28;101636.97;;;10.09;100.00
54172;BME280;40076;52.354;4.970;2023-04-21T00:46:54;101632.47;;;10.04;100.00
54172;BME280;40076;52.354;4.970;2023-04-21T00:49:19;101629.78;;;10.04;100.00
54172;BME280;40076;52.354;4.970;2023-04-21T00:51:44;101631.16;;;10.02;100.00
54172;BME280;40076;52.354;4.970;2023-04-21T00:54:10;101631.38;;;10.05;100.00
54172;BME280;40076;52.354;4.970;2023-04-21T00:56:36;101635.47;;;10.03;100.00
54172;BME280;40076;52.354;4.970;2023-04-21T00:59:02;101640.28;;;10.06;100.00
54172;BME280;40076;52.354;4.970;2023-04-21T01:01:28;101637.06;;;10.04;100.00
54172;BME280;40076;52.354;4.970;2023-04-21T01:03:57;101638.69;;;10.05;100.00
54172;BME280;40076;52.354;4.970;2023-04-21T01:06:24;101632.19;;;10.06;100.00
54172;BME280;40076;52.354;4.970;2023-04-21T01:08:51;101633.28;;;10.05;100.00
54172;BME280;40076;52.354;4.970;2023-04-21T01:11:16;101625.75;;;10.02;100.00
54172;BME280;40076;52.354;4.970;2023-04-21T01:13:42;101628.25;;;9.98;100.00
54172;BME280;40076;52.354;4.970;2023-04-21T01:16:07;101618.75;;;10.01;100.00
54172;BME280;40076;52.354;4.970;2023-04-21T01:18:33;101612.06;;;9.98;100.00
54172;BME280;40076;52.354;4.970;2023-04-21T01:21:00;101606.94;;;9.97;100.00
54172;BME280;40076;52.354;4.970;2023-04-21T01:23:26;101615.34;;;9.95;100.00
54172;BME280;40076;52.354;4.970;2023-04-21T01:25:51;101616.94;;;9.96;100.00
54172;BME280;40076;52.354;4.970;2023-04-21T01:28:24;101612.94;;;9.94;100.00
54172;BME280;40076;52.354;4.970;2023-04-21T01:30:50;101610.53;;;9.92;100.00
54172;BME280;40076;52.354;4.970;2023-04-21T01:33:16;101608.94;;;9.91;100.00
54172;BME280;40076;52.354;4.970;2023-04-21T01:35:42;101604.94;;;9.89;100.00
54172;BME280;40076;52.354;4.970;2023-04-21T01:38:07;101595.44;;;9.91;100.00
54172;BME280;40076;52.354;4.970;2023-04-21T01:40:33;101597.81;;;9.93;100.00
54172;BME280;40076;52.354;4.970;2023-04-21T01:42:58;101589.44;;;9.94;100.00
54172;BME280;40076;52.354;4.970;2023-04-21T01:45:24;101592.94;;;9.95;100.00
54172;BME280;40076;52.354;4.970;2023-04-21T01:47:49;101601.03;;;9.95;100.00
54172;BME280;40076;52.354;4.970;2023-04-21T01:50:14;101597.81;;;9.93;100.00
54172;BME280;40076;52.354;4.970;2023-04-21T01:52:40;101590.25;;;9.95;100.00
54172;BME280;40076;52.354;4.970;2023-04-21T01:55:06;101591.34;;;9.94;100.00
54172;BME280;40076;52.354;4.970;2023-04-21T01:57:31;101575.44;;;9.92;100.00
54172;BME280;40076;52.354;4.970;2023-04-21T01:59:56;101581.63;;;9.93;100.00
54172;BME280;40076;52.354;4.970;2023-04-21T02:02:22;101582.72;;;9.92;100.00
54172;BME280;40076;52.354;4.970;2023-04-21T02:04:47;101580.81;;;9.92;100.00
54172;BME280;40076;52.354;4.970;2023-04-21T02:07:12;101580.03;;;9.92;100.00
54172;BME280;40076;52.354;4.970;2023-04-21T02:09:38;101576.53;;;9.91;100.00
54172;BME280;40076;52.354;4.970;2023-04-21T02:12:03;101572.72;;;9.92;100.00
54172;BME280;40076;52.354;4.970;2023-04-21T02:14:29;101570.63;;;9.89;100.00
54172;BME280;40076;52.354;4.970;2023-04-21T02:16:54;101576.63;;;9.86;100.00
54172;BME280;40076;52.354;4.970;2023-04-21T02:19:20;101573.63;;;9.88;100.00
54172;BME280;40076;52.354;4.970;2023-04-21T02:21:45;101571.44;;;9.90;100.00
54172;BME280;40076;52.354;4.970;2023-04-21T02:24:11;101572.53;;;9.89;100.00
54172;BME280;40076;52.354;4.970;2023-04-21T02:26:36;101570.63;;;9.89;100.00
54172;BME280;40076;52.354;4.970;2023-04-21T02:29:01;101573.03;;;9.91;100.00
54172;BME280;40076;52.354;4.970;2023-04-21T02:31:27;101565.22;;;9.89;100.00
54172;BME280;40076;52.354;4.970;2023-04-21T02:33:52;101562.03;;;9.87;100.00
54172;BME280;40076;52.354;4.970;2023-04-21T02:36:18;101567.41;;;9.87;100.00
54172;BME280;40076;52.354;4.970;2023-04-21T02:38:44;101572.81;;;9.87;100.00
54172;BME280;40076;52.354;4.970;2023-04-21T02:41:10;101570.63;;;9.89;100.00
54172;BME280;40076;52.354;4.970;2023-04-21T02:43:35;101573.03;;;9.91;100.00
54172;BME280;40076;52.354;4.970;2023-04-21T02:46:07;101560.94;;;9.88;100.00
54172;BME280;40076;52.354;4.970;2023-04-21T02:48:33;101552.53;;;9.90;100.00
54172;BME280;40076;52.354;4.970;2023-04-21T02:50:59;101545.53;;;9.89;100.00
54172;BME280;40076;52.354;4.970;2023-04-21T02:53:24;101542.53;;;9.90;100.00
54172;BME280;40076;52.354;4.970;2023-04-21T02:55:49;101556.34;;;9.89;100.00
54172;BME280;40076;52.354;4.970;2023-04-21T02:58:15;101562.53;;;9.89;100.00
54172;BME280;40076;52.354;4.970;2023-04-21T03:00:40;101557.94;;;9.90;100.00
54172;BME280;40076;52.354;4.970;2023-04-21T03:03:06;101561.44;;;9.90;100.00
54172;BME280;40076;52.354;4.970;2023-04-21T03:05:31;101560.63;;;9.90;100.00
54172;BME280;40076;52.354;4.970;2023-04-21T03:07:57;101549.84;;;9.90;100.00
54172;BME280;40076;52.354;4.970;2023-04-21T03:10:22;101551.44;;;9.91;100.00
54172;BME280;40076;52.354;4.970;2023-04-21T03:12:47;101560.63;;;9.90;100.00
54172;BME280;40076;52.354;4.970;2023-04-21T03:15:13;101566.03;;;9.90;100.00
54172;BME280;40076;52.354;4.970;2023-04-21T03:17:41;101569.53;;;9.90;100.00
54172;BME280;40076;52.354;4.970;2023-04-21T03:20:07;101564.16;;;9.90;100.00
54172;BME280;40076;52.354;4.970;2023-04-21T03:22:42;101568.75;;;9.90;100.00
54172;BME280;40076;52.354;4.970;2023-04-21T03:25:07;101564.44;;;9.89;100.00
54172;BME280;40076;52.354;4.970;2023-04-21T03:27:33;101552.84;;;9.88;100.00
54172;BME280;40076;52.354;4.970;2023-04-21T03:29:58;101552.03;;;9.88;100.00
54172;BME280;40076;52.354;4.970;2023-04-21T03:32:24;101549.09;;;9.84;100.00
54172;BME280;40076;52.354;4.970;2023-04-21T03:34:49;101555.63;;;9.83;100.00
54172;BME280;40076;52.354;4.970;2023-04-21T03:37:15;101547.03;;;9.81;100.00
54172;BME280;40076;52.354;4.970;2023-04-21T03:39:40;101538.63;;;9.83;100.00
54172;BME280;40076;52.354;4.970;2023-04-21T03:42:05;101544.31;;;9.81;100.00
54172;BME280;40076;52.354;4.970;2023-04-21T03:44:31;101547.81;;;9.82;100.00
54172;BME280;40076;52.354;4.970;2023-04-21T03:46:56;101546.72;;;9.83;100.00
54172;BME280;40076;52.354;4.970;2023-04-21T03:49:22;101551.03;;;9.84;100.00
54172;BME280;40076;52.354;4.970;2023-04-21T03:51:48;101541.00;;;9.84;100.00
54172;BME280;40076;52.354;4.970;2023-04-21T03:54:13;101525.94;;;9.83;100.00
54172;BME280;40076;52.354;4.970;2023-04-21T03:56:39;101518.94;;;9.82;100.00
54172;BME280;40076;52.354;4.970;2023-04-21T03:59:04;101526.22;;;9.82;100.00
54172;BME280;40076;52.354;4.970;2023-04-21T04:01:31;101538.91;;;9.81;100.00
54172;BME280;40076;52.354;4.970;2023-04-21T04:03:56;101536.22;;;9.81;100.00
54172;BME280;40076;52.354;4.970;2023-04-21T04:06:21;101531.34;;;9.83;100.00
54172;BME280;40076;52.354;4.970;2023-04-21T04:08:46;101530.53;;;9.83;100.00
54172;BME280;40076;52.354;4.970;2023-04-21T04:11:12;101519.22;;;9.81;100.00
54172;BME280;40076;52.354;4.970;2023-04-21T04:13:37;101526.53;;;9.80;100.00
54172;BME280;40076;52.354;4.970;2023-04-21T04:16:02;101532.44;;;9.82;100.00
54172;BME280;40076;52.354;4.970;2023-04-21T04:18:28;101529.72;;;9.82;100.00
54172;BME280;40076;52.354;4.970;2023-04-21T04:20:53;101520.03;;;9.81;100.00
54172;BME280;40076;52.354;4.970;2023-04-21T04:23:18;101505.44;;;9.82;100.00
54172;BME280;40076;52.354;4.970;2023-04-21T04:25:44;101506.25;;;9.83;100.00
54172;BME280;40076;52.354;4.970;2023-04-21T04:28:09;101507.84;;;9.84;100.00
54172;BME280;40076;52.354;4.970;2023-04-21T04:30:36;101514.00;;;9.84;100.00
54172;BME280;40076;52.354;4.970;2023-04-21T04:33:02;101511.31;;;9.84;100.00
54172;BME280;40076;52.354;4.970;2023-04-21T04:35:27;101505.91;;;9.84;100.00
54172;BME280;40076;52.354;4.970;2023-04-21T04:37:52;101509.94;;;9.87;100.00
54172;BME280;40076;52.354;4.970;2023-04-21T04:40:18;101508.31;;;9.86;100.00
54172;BME280;40076;52.354;4.970;2023-04-21T04:42:44;101494.53;;;9.87;100.00
54172;BME280;40076;52.354;4.970;2023-04-21T04:45:11;101505.03;;;9.89;100.00
54172;BME280;40076;52.354;4.970;2023-04-21T04:47:38;101500.22;;;9.86;100.00
54172;BME280;40076;52.354;4.970;2023-04-21T04:50:04;101514.53;;;9.86;100.00
54172;BME280;40076;52.354;4.970;2023-04-21T04:52:29;101519.94;;;9.86;100.00
54172;BME280;40076;52.354;4.970;2023-04-21T04:54:55;101530.72;;;9.86;100.00
54172;BME280;40076;52.354;4.970;2023-04-21T04:57:21;101520.72;;;9.87;100.00
54172;BME280;40076;52.354;4.970;2023-04-21T04:59:46;101514.53;;;9.86;100.00
54172;BME280;40076;52.354;4.970;2023-04-21T05:02:13;101516.44;;;9.86;100.00
54172;BME280;40076;52.354;4.970;2023-04-21T05:04:38;101519.94;;;9.86;100.00
54172;BME280;40076;52.354;4.970;2023-04-21T05:07:04;101530.72;;;9.86;100.00
54172;BME280;40076;52.354;4.970;2023-04-21T05:09:32;101528.03;;;9.86;100.00
54172;BME280;40076;52.354;4.970;2023-04-21T05:11:57;101524.22;;;9.87;100.00
54172;BME280;40076;52.354;4.970;2023-04-21T05:14:22;101523.94;;;9.89;100.00
54172;BME280;40076;52.354;4.970;2023-04-21T05:16:47;101516.13;;;9.87;100.00
54172;BME280;40076;52.354;4.970;2023-04-21T05:19:13;101508.84;;;9.88;100.00
54172;BME280;40076;52.354;4.970;2023-04-21T05:21:38;101523.13;;;9.88;100.00
54172;BME280;40076;52.354;4.970;2023-04-21T05:24:03;101528.81;;;9.87;100.00
54172;BME280;40076;52.354;4.970;2023-04-21T05:26:29;101533.13;;;9.88;100.00
54172;BME280;40076;52.354;4.970;2023-04-21T05:28:56;101528.53;;;9.88;100.00
54172;BME280;40076;52.354;4.970;2023-04-21T05:31:22;101523.13;;;9.88;100.00
54172;BME280;40076;52.354;4.970;2023-04-21T05:33:48;101516.66;;;9.89;100.00
54172;BME280;40076;52.354;4.970;2023-04-21T05:36:13;101526.94;;;9.87;100.00
54172;BME280;40076;52.354;4.970;2023-04-21T05:38:38;101524.75;;;9.89;100.00
54172;BME280;40076;52.354;4.970;2023-04-21T05:41:04;101532.84;;;9.89;100.00
54172;BME280;40076;52.354;4.970;2023-04-21T05:43:29;101532.84;;;9.89;100.00
54172;BME280;40076;52.354;4.970;2023-04-21T05:46:00;101532.84;;;9.89;100.00
54172;BME280;40076;52.354;4.970;2023-04-21T05:48:26;101537.16;;;9.90;100.00
54172;BME280;40076;52.354;4.970;2023-04-21T05:50:53;101543.34;;;9.91;100.00
54172;BME280;40076;52.354;4.970;2023-04-21T05:53:18;101530.66;;;9.91;100.00
54172;BME280;40076;52.354;4.970;2023-04-21T05:55:43;101515.56;;;9.90;100.00
54172;BME280;40076;52.354;4.970;2023-04-21T05:58:09;101524.13;;;9.92;100.00
54172;BME280;40076;52.354;4.970;2023-04-21T06:00:34;101537.94;;;9.91;100.00
54172;BME280;40076;52.354;4.970;2023-04-21T06:02:59;101544.16;;;9.91;100.00
54172;BME280;40076;52.354;4.970;2023-04-21T06:05:25;101539.25;;;9.93;100.00
54172;BME280;40076;52.354;4.970;2023-04-21T06:07:50;101548.66;;;9.96;100.00
54172;BME280;40076;52.354;4.970;2023-04-21T06:10:16;101548.34;;;9.97;100.00
54172;BME280;40076;52.354;4.970;2023-04-21T06:12:41;101549.16;;;9.98;100.00
54172;BME280;40076;52.354;4.970;2023-04-21T06:15:07;101547.56;;;9.97;100.00
54172;BME280;40076;52.354;4.970;2023-04-21T06:17:33;101542.66;;;9.99;100.00
54172;BME280;40076;52.354;4.970;2023-04-21T06:19:58;101534.25;;;10.00;100.00
54172;BME280;40076;52.354;4.970;2023-04-21T06:22:24;101556.06;;;10.04;100.00
54172;BME280;40076;52.354;4.970;2023-04-21T06:24:50;101529.34;;;10.02;100.00
54172;BME280;40076;52.354;4.970;2023-04-21T06:27:15;101532.34;;;10.01;100.00
54172;BME280;40076;52.354;4.970;2023-04-21T06:29:41;101538.56;;;10.01;100.00
54172;BME280;40076;52.354;4.970;2023-04-21T06:32:10;101547.69;;;10.05;100.00
54172;BME280;40076;52.354;4.970;2023-04-21T06:34:35;101541.94;;;10.07;100.00
54172;BME280;40076;52.354;4.970;2023-04-21T06:37:01;101529.25;;;10.07;100.00
54172;BME280;40076;52.354;4.970;2023-04-21T06:39:26;101522.75;;;10.08;100.00
54172;BME280;40076;52.354;4.970;2023-04-21T06:41:52;101526.78;;;10.11;100.00
54172;BME280;40076;52.354;4.970;2023-04-21T06:44:17;101537.28;;;10.13;100.00
54172;BME280;40076;52.354;4.970;2023-04-21T06:46:42;101532.97;;;10.12;100.00
54172;BME280;40076;52.354;4.970;2023-04-21T06:49:08;101531.09;;;10.12;100.00
54172;BME280;40076;52.354;4.970;2023-04-21T06:51:34;101549.38;;;10.15;100.00
54172;BME280;40076;52.354;4.970;2023-04-21T06:54:00;101535.88;;;10.15;100.00
54172;BME280;40076;52.354;4.970;2023-04-21T06:56:26;101539.38;;;10.16;100.00
54172;BME280;40076;52.354;4.970;2023-04-21T06:58:51;101538.00;;;10.18;100.00
54172;BME280;40076;52.354;4.970;2023-04-21T07:01:17;101535.31;;;10.18;100.00
54172;BME280;40076;52.354;4.970;2023-04-21T07:03:42;101550.94;;;10.21;100.00
54172;BME280;40076;52.354;4.970;2023-04-21T07:06:08;101536.31;;;10.22;100.00
54172;BME280;40076;52.354;4.970;2023-04-21T07:08:33;101528.72;;;10.24;100.00
54172;BME280;40076;52.354;4.970;2023-04-21T07:10:58;101536.22;;;10.27;100.00
54172;BME280;40076;52.354;4.970;2023-04-21T07:13:23;101528.13;;;10.27;100.00
54172;BME280;40076;52.354;4.970;2023-04-21T07:15:49;101531.81;;;10.31;100.00
54172;BME280;40076;52.354;4.970;2023-04-21T07:18:14;101527.22;;;10.32;100.00
54172;BME280;40076;52.354;4.970;2023-04-21T07:20:40;101513.91;;;10.35;100.00
54172;BME280;40076;52.354;4.970;2023-04-21T07:23:05;101516.31;;;10.37;100.00
54172;BME280;40076;52.354;4.970;2023-04-21T07:25:31;101522.53;;;10.37;100.00
54172;BME280;40076;52.354;4.970;2023-04-21T07:27:56;101533.81;;;10.39;100.00
54172;BME280;40076;52.354;4.970;2023-04-21T07:30:21;101534.03;;;10.43;100.00
54172;BME280;40076;52.354;4.970;2023-04-21T07:32:47;101537.72;;;10.47;100.00
54172;BME280;40076;52.354;4.970;2023-04-21T07:35:12;101532.03;;;10.49;100.00
54172;BME280;40076;52.354;4.970;2023-04-21T07:37:37;101524.44;;;10.51;100.00
54172;BME280;40076;52.354;4.970;2023-04-21T07:40:05;101521.09;;;10.54;100.00
54172;BME280;40076;52.354;4.970;2023-04-21T07:42:31;101532.13;;;10.57;100.00
54172;BME280;40076;52.354;4.970;2023-04-21T07:44:56;101536.94;;;10.60;100.00
54172;BME280;40076;52.354;4.970;2023-04-21T07:47:22;101538.44;;;10.66;100.00
54172;BME280;40076;52.354;4.970;2023-04-21T07:49:47;101543.72;;;10.71;100.00
54172;BME280;40076;52.354;4.970;2023-04-21T07:52:12;101543.13;;;10.74;100.00
54172;BME280;40076;52.354;4.970;2023-04-21T07:54:38;101541.41;;;10.78;100.00
54172;BME280;40076;52.354;4.970;2023-04-21T07:57:03;101538.28;;;10.85;100.00
54172;BME280;40076;52.354;4.970;2023-04-21T07:59:28;101529.75;;;10.92;100.00
54172;BME280;40076;52.354;4.970;2023-04-21T08:01:54;101536.97;;;10.96;100.00
54172;BME280;40076;52.354;4.970;2023-04-21T08:04:19;101539.06;;;10.99;100.00
54172;BME280;40076;52.354;4.970;2023-04-21T08:06:44;101543.88;;;11.02;100.00
54172;BME280;40076;52.354;4.970;2023-04-21T08:09:10;101541.97;;;11.03;100.00
54172;BME280;40076;52.354;4.970;2023-04-21T08:11:36;101530.56;;;11.06;100.00
54172;BME280;40076;52.354;4.970;2023-04-21T08:14:01;101529.13;;;11.08;100.00
54172;BME280;40076;52.354;4.970;2023-04-21T08:16:28;101536.63;;;11.11;100.00
54172;BME280;40076;52.354;4.970;2023-04-21T08:18:53;101532.03;;;11.12;100.00
54172;BME280;40076;52.354;4.970;2023-04-21T08:21:18;101521.69;;;11.14;100.00
54172;BME280;40076;52.354;4.970;2023-04-21T08:23:44;101526.50;;;11.17;100.00
54172;BME280;40076;52.354;4.970;2023-04-21T08:26:09;101524.78;;;11.21;100.00
54172;BME280;40076;52.354;4.970;2023-04-21T08:28:35;101528.47;;;11.25;100.00
54172;BME280;40076;52.354;4.970;2023-04-21T08:31:00;101521.66;;;11.28;100.00
54172;BME280;40076;52.354;4.970;2023-04-21T08:33:26;101524.84;;;11.30;100.00
54172;BME280;40076;52.354;4.970;2023-04-21T08:35:52;101530.44;;;11.33;100.00
54172;BME280;40076;52.354;4.970;2023-04-21T08:38:17;101524.22;;;11.33;100.00
54172;BME280;40076;52.354;4.970;2023-04-21T08:40:42;101541.78;;;11.35;100.00
54172;BME280;40076;52.354;4.970;2023-04-21T08:43:08;101543.03;;;11.38;100.00
54172;BME280;40076;52.354;4.970;2023-04-21T08:45:34;101541.66;;;11.40;100.00
54172;BME280;40076;52.354;4.970;2023-04-21T08:48:01;101540.53;;;11.41;100.00
54172;BME280;40076;52.354;4.970;2023-04-21T08:50:28;101542.31;;;11.46;100.00
54172;BME280;40076;52.354;4.970;2023-04-21T08:52:54;101539.81;;;11.49;100.00
54172;BME280;40076;52.354;4.970;2023-04-21T08:55:25;101537.59;;;11.51;100.00
54172;BME280;40076;52.354;4.970;2023-04-21T08:57:51;101531.56;;;11.54;100.00
54172;BME280;40076;52.354;4.970;2023-04-21T09:00:16;101531.75;;;11.58;100.00
54172;BME280;40076;52.354;4.970;2023-04-21T09:02:52;101527.44;;;11.57;100.00
54172;BME280;40076;52.354;4.970;2023-04-21T09:05:22;101534.13;;;11.59;100.00
54172;BME280;40076;52.354;4.970;2023-04-21T09:07:49;101536.22;;;11.63;100.00
54172;BME280;40076;52.354;4.970;2023-04-21T09:10:21;101524.59;;;11.62;100.00
54172;BME280;40076;52.354;4.970;2023-04-21T09:12:50;101525.09;;;11.64;100.00
54172;BME280;40076;52.354;4.970;2023-04-21T09:15:16;101526.88;;;11.69;100.00
54172;BME280;40076;52.354;4.970;2023-04-21T09:17:44;101529.78;;;11.72;100.00
54172;BME280;40076;52.354;4.970;2023-04-21T09:20:18;101531.88;;;11.75;100.00
54172;BME280;40076;52.354;4.970;2023-04-21T09:22:47;101525.06;;;11.78;100.00
54172;BME280;40076;52.354;4.970;2023-04-21T09:25:18;101518.38;;;11.84;100.00
54172;BME280;40076;52.354;4.970;2023-04-21T09:27:45;101524.16;;;11.91;100.00
54172;BME280;40076;52.354;4.970;2023-04-21T09:30:11;101523.56;;;11.94;100.00
54172;BME280;40076;52.354;4.970;2023-04-21T09:32:37;101525.31;;;11.98;100.00
54172;BME280;40076;52.354;4.970;2023-04-21T09:35:04;101513.06;;;12.01;100.00
54172;BME280;40076;52.354;4.970;2023-04-21T09:37:34;101527.09;;;12.03;100.00
54172;BME280;40076;52.354;4.970;2023-04-21T09:39:59;101522.97;;;12.06;100.00
54172;BME280;40076;52.354;4.970;2023-04-21T09:42:29;101510.56;;;12.05;100.00
54172;BME280;40076;52.354;4.970;2023-04-21T09:44:54;101515.63;;;12.06;100.00
54172;BME280;40076;52.354;4.970;2023-04-21T09:47:21;101513.41;;;12.08;100.00
54172;BME280;40076;52.354;4.970;2023-04-21T09:49:50;101510.72;;;12.08;100.00
54172;BME280;40076;52.354;4.970;2023-04-21T09:52:18;101504.00;;;12.06;100.00
54172;BME280;40076;52.354;4.970;2023-04-21T09:54:49;101502.28;;;12.10;100.00
54172;BME280;40076;52.354;4.970;2023-04-21T09:57:20;101509.00;;;12.12;100.00
54172;BME280;40076;52.354;4.970;2023-04-21T09:59:46;101492.91;;;12.16;100.00
54172;BME280;40076;52.354;4.970;2023-04-21T10:02:15;101501.53;;;12.18;100.00
54172;BME280;40076;52.354;4.970;2023-04-21T10:04:43;101504.06;;;12.23;100.00
54172;BME280;40076;52.354;4.970;2023-04-21T10:07:10;101498.84;;;12.26;100.00
54172;BME280;40076;52.354;4.970;2023-04-21T10:09:43;101505.22;;;12.30;100.00
54172;BME280;40076;52.354;4.970;2023-04-21T10:12:09;101504.28;;;12.35;100.00
54172;BME280;40076;52.354;4.970;2023-04-21T10:14:35;101509.53;;;12.31;100.00
54172;BME280;40076;52.354;4.970;2023-04-21T10:17:08;101503.81;;;12.33;100.00
54172;BME280;40076;52.354;4.970;2023-04-21T10:19:35;101495.53;;;12.38;100.00
54172;BME280;40076;52.354;4.970;2023-04-21T10:22:07;101501.75;;;12.38;100.00
54172;BME280;40076;52.354;4.970;2023-04-21T10:24:38;101512.75;;;12.42;100.00
54172;BME280;40076;52.354;4.970;2023-04-21T10:27:04;101506.53;;;12.42;100.00
54172;BME280;40076;52.354;4.970;2023-04-21T10:29:32;101506.69;;;12.45;100.00
54172;BME280;40076;52.354;4.970;2023-04-21T10:31:57;101505.91;;;12.45;100.00
54172;BME280;40076;52.354;4.970;2023-04-21T10:34:36;101508.16;;;12.43;100.00
54172;BME280;40076;52.354;4.970;2023-04-21T10:44:40;101500.97;;;12.47;100.00
54172;BME280;40076;52.354;4.970;2023-04-21T10:47:06;101500.00;;;12.51;100.00
54172;BME280;40076;52.354;4.970;2023-04-21T10:49:37;101485.34;;;12.52;100.00
54172;BME280;40076;52.354;4.970;2023-04-21T10:52:04;101479.47;;;12.59;100.00
54172;BME280;40076;52.354;4.970;2023-04-21T10:57:16;101483.00;;;12.68;100.00
54172;BME280;40076;52.354;4.970;2023-04-21T10:59:43;101484.59;;;12.77;100.00
54172;BME280;40076;52.354;4.970;2023-04-21T11:02:13;101489.06;;;12.82;100.00
54172;BME280;40076;52.354;4.970;2023-04-21T11:04:40;101490.53;;;12.88;100.00
54172;BME280;40076;52.354;4.970;2023-04-21T11:09:45;101480.63;;;13.01;100.00
54172;BME280;40076;52.354;4.970;2023-04-21T11:12:13;101477.44;;;13.07;100.00
54172;BME280;40076;52.354;4.970;2023-04-21T11:14:41;101472.97;;;13.11;100.00
54172;BME280;40076;52.354;4.970;2023-04-21T11:17:15;101465.00;;;13.15;100.00
54172;BME280;40076;52.354;4.970;2023-04-21T11:19:44;101455.13;;;13.19;100.00
54172;BME280;40076;52.354;4.970;2023-04-21T11:22:10;101456.88;;;13.24;100.00
54172;BME280;40076;52.354;4.970;2023-04-21T11:24:35;101454.31;;;13.27;100.00
54172;BME280;40076;52.354;4.970;2023-04-21T11:27:00;101452.38;;;13.28;100.00
54172;BME280;40076;52.354;4.970;2023-04-21T11:29:26;101448.56;;;13.29;100.00
54172;BME280;40076;52.354;4.970;2023-04-21T11:31:53;101452.88;;;13.30;100.00
54172;BME280;40076;52.354;4.970;2023-04-21T11:34:20;101445.22;;;13.32;100.00
54172;BME280;40076;52.354;4.970;2023-04-21T11:36:46;101434.84;;;13.34;100.00
54172;BME280;40076;52.354;4.970;2023-04-21T11:39:13;101432.13;;;13.34;100.00
54172;BME280;40076;52.354;4.970;2023-04-21T11:41:44;101426.34;;;13.35;100.00
54172;BME280;40076;52.354;4.970;2023-04-21T11:44:10;101430.84;;;13.31;100.00
54172;BME280;40076;52.354;4.970;2023-04-21T11:46:36;101427.63;;;13.29;100.00
54172;BME280;40076;52.354;4.970;2023-04-21T11:49:13;101431.16;;;13.30;100.00
54172;BME280;40076;52.354;4.970;2023-04-21T11:51:40;101436.44;;;13.26;100.00
54172;BME280;40076;52.354;4.970;2023-04-21T11:54:09;101429.41;;;13.25;100.00
54172;BME280;40076;52.354;4.970;2023-04-21T11:56:38;101427.97;;;13.28;100.00
54172;BME280;40076;52.354;4.970;2023-04-21T11:59:08;101415.66;;;13.30;100.00
54172;BME280;40076;52.354;4.970;2023-04-21T12:01:44;101422.69;;;13.31;100.00
54172;BME280;40076;52.354;4.970;2023-04-21T12:04:18;101428.28;;;13.35;100.00
54172;BME280;40076;52.354;4.970;2023-04-21T12:06:44;101413.25;;;13.37;100.00
54172;BME280;40076;52.354;4.970;2023-04-21T12:09:18;101406.38;;;13.40;100.00
54172;BME280;40076;52.354;4.970;2023-04-21T12:11:48;101400.78;;;13.45;100.00
54172;BME280;40076;52.354;4.970;2023-04-21T12:14:15;101400.63;;;13.50;100.00
54172;BME280;40076;52.354;4.970;2023-04-21T12:16:41;101399.63;;;13.55;100.00
54172;BME280;40076;52.354;4.970;2023-04-21T12:19:06;101389.06;;;13.62;100.00
54172;BME280;40076;52.354;4.970;2023-04-21T12:21:32;101382.81;;;13.70;100.00
54172;BME280;40076;52.354;4.970;2023-04-21T12:23:57;101379.91;;;13.75;100.00
54172;BME280;40076;52.354;4.970;2023-04-21T12:26:22;101383.69;;;13.82;100.00
54172;BME280;40076;52.354;4.970;2023-04-21T12:28:49;101382.06;;;13.90;100.00
54172;BME280;40076;52.354;4.970;2023-04-21T12:31:14;101375.78;;;13.98;100.00
54172;BME280;40076;52.354;4.970;2023-04-21T12:33:40;101369.03;;;14.04;100.00
54172;BME280;40076;52.354;4.970;2023-04-21T12:36:05;101367.28;;;14.08;100.00
54172;BME280;40076;52.354;4.970;2023-04-21T12:38:31;101361.31;;;14.15;100.00
54172;BME280;40076;52.354;4.970;2023-04-21T12:40:56;101361.91;;;14.20;100.00
54172;BME280;40076;52.354;4.970;2023-04-21T12:43:21;101360.94;;;14.25;100.00
54172;BME280;40076;52.354;4.970;2023-04-21T12:45:48;101364.25;;;14.30;100.00
54172;BME280;40076;52.354;4.970;2023-04-21T12:48:13;101348.09;;;14.34;100.00
54172;BME280;40076;52.354;4.970;2023-04-21T12:50:39;101352.22;;;14.40;100.00